sensor_id;sensor_type;location;lat;lon;timestamp;P1;durP1;ratioP1;P2;durP2;ratioP2
77513;SDS011;66626;48.872;9.084;2023-06-10T00:02:14;10.85;;;6.78;;
77513;SDS011;66626;48.872;9.084;2023-06-10T00:04:41;11.18;;;6.82;;
77513;SDS011;66626;48.872;9.084;2023-06-10T00:07:07;9.68;;;6.28;;
77513;SDS011;66626;48.872;9.084;2023-06-10T00:09:43;11.82;;;6.53;;
77513;SDS011;66626;48.872;9.084;2023-06-10T00:12:08;10.52;;;6.65;;
77513;SDS011;66626;48.872;9.084;2023-06-10T00:14:37;9.82;;;6.03;;
77513;SDS011;66626;48.872;9.084;2023-06-10T00:17:04;10.52;;;6.45;;
77513;SDS011;66626;48.872;9.084;2023-06-10T00:19:30;9.77;;;6.88;;
77513;SDS011;66626;48.872;9.084;2023-06-10T00:21:55;10.07;;;7.18;;
77513;SDS011;66626;48.872;9.084;2023-06-10T00:24:21;10.77;;;6.07;;
77513;SDS011;66626;48.872;9.084;2023-06-10T00:26:47;7.63;;;5.80;;
77513;SDS011;66626;48.872;9.084;2023-06-10T00:29:13;9.35;;;7.03;;
77513;SDS011;66626;48.872;9.084;2023-06-10T00:31:39;9.50;;;6.60;;
77513;SDS011;66626;48.872;9.084;2023-06-10T00:34:04;9.95;;;6.50;;
77513;SDS011;66626;48.872;9.084;2023-06-10T00:36:30;8.23;;;5.72;;
77513;SDS011;66626;48.872;9.084;2023-06-10T00:38:56;8.52;;;5.95;;
77513;SDS011;66626;48.872;9.084;2023-06-10T00:41:21;10.30;;;7.35;;
77513;SDS011;66626;48.872;9.084;2023-06-10T00:43:47;9.52;;;6.03;;
77513;SDS011;66626;48.872;9.084;2023-06-10T00:46:12;9.68;;;6.60;;
77513;SDS011;66626;48.872;9.084;2023-06-10T00:48:39;10.32;;;6.82;;
77513;SDS011;66626;48.872;9.084;2023-06-10T00:51:05;9.75;;;6.35;;
77513;SDS011;66626;48.872;9.084;2023-06-10T00:53:31;8.45;;;5.88;;
77513;SDS011;66626;48.872;9.084;2023-06-10T00:55:57;11.85;;;6.95;;
77513;SDS011;66626;48.872;9.084;2023-06-10T00:58:23;8.10;;;6.22;;
77513;SDS011;66626;48.872;9.084;2023-06-10T01:00:50;9.15;;;6.38;;
77513;SDS011;66626;48.872;9.084;2023-06-10T01:03:16;8.80;;;6.88;;
77513;SDS011;66626;48.872;9.084;2023-06-10T01:05:42;14.05;;;6.45;;
77513;SDS011;66626;48.872;9.084;2023-06-10T01:10:57;7.88;;;5.95;;
77513;SDS011;66626;48.872;9.084;2023-06-10T01:13:25;8.68;;;7.05;;
77513;SDS011;66626;48.872;9.084;2023-06-10T01:15:53;9.15;;;6.65;;
77513;SDS011;66626;48.872;9.084;2023-06-10T01:18:20;10.15;;;7.43;;
77513;SDS011;66626;48.872;9.084;2023-06-10T01:20:46;9.38;;;6.85;;
77513;SDS011;66626;48.872;9.084;2023-06-10T01:23:13;8.48;;;6.45;;
77513;SDS011;66626;48.872;9.084;2023-06-10T01:25:40;9.27;;;5.85;;
77513;SDS011;66626;48.872;9.084;2023-06-10T01:28:18;7.97;;;5.55;;
77513;SDS011;66626;48.872;9.084;2023-06-10T01:33:52;9.07;;;5.93;;
77513;SDS011;66626;48.872;9.084;2023-06-10T01:36:18;10.55;;;6.28;;
77513;SDS011;66626;48.872;9.084;2023-06-10T01:38:44;10.30;;;6.97;;
77513;SDS011;66626;48.872;9.084;2023-06-10T01:41:16;8.45;;;6.28;;
77513;SDS011;66626;48.872;9.084;2023-06-10T01:43:43;9.73;;;6.63;;
77513;SDS011;66626;48.872;9.084;2023-06-10T01:46:15;9.90;;;6.50;;
77513;SDS011;66626;48.872;9.084;2023-06-10T01:48:45;10.73;;;7.88;;
77513;SDS011;66626;48.872;9.084;2023-06-10T01:51:10;9.27;;;6.85;;
77513;SDS011;66626;48.872;9.084;2023-06-10T01:53:35;10.23;;;7.28;;
77513;SDS011;66626;48.872;9.084;2023-06-10T01:56:01;9.35;;;7.03;;
77513;SDS011;66626;48.872;9.084;2023-06-10T01:58:26;9.32;;;6.68;;
77513;SDS011;66626;48.872;9.084;2023-06-10T02:00:51;9.05;;;6.85;;
77513;SDS011;66626;48.872;9.084;2023-06-10T02:03:17;8.27;;;6.20;;
77513;SDS011;66626;48.872;9.084;2023-06-10T02:05:43;9.30;;;6.78;;
77513;SDS011;66626;48.872;9.084;2023-06-10T02:08:08;10.60;;;6.78;;
77513;SDS011;66626;48.872;9.084;2023-06-10T02:10:33;9.85;;;6.68;;
77513;SDS011;66626;48.872;9.084;2023-06-10T02:12:59;10.30;;;5.60;;
77513;SDS011;66626;48.872;9.084;2023-06-10T02:15:24;9.98;;;7.25;;
77513;SDS011;66626;48.872;9.084;2023-06-10T02:17:50;10.07;;;6.78;;
77513;SDS011;66626;48.872;9.084;2023-06-10T02:20:16;10.57;;;6.38;;
77513;SDS011;66626;48.872;9.084;2023-06-10T02:22:42;9.40;;;6.85;;
77513;SDS011;66626;48.872;9.084;2023-06-10T02:25:07;10.82;;;6.07;;
77513;SDS011;66626;48.872;9.084;2023-06-10T02:27:33;10.70;;;7.90;;
77513;SDS011;66626;48.872;9.084;2023-06-10T02:29:58;9.95;;;6.53;;
77513;SDS011;66626;48.872;9.084;2023-06-10T02:32:23;10.82;;;7.72;;
77513;SDS011;66626;48.872;9.084;2023-06-10T02:34:50;8.43;;;6.15;;
77513;SDS011;66626;48.872;9.084;2023-06-10T02:37:15;9.55;;;7.32;;
77513;SDS011;66626;48.872;9.084;2023-06-10T02:39:41;9.07;;;6.75;;
77513;SDS011;66626;48.872;9.084;2023-06-10T02:42:06;10.02;;;6.88;;
77513;SDS011;66626;48.872;9.084;2023-06-10T02:44:33;12.45;;;7.05;;
77513;SDS011;66626;48.872;9.084;2023-06-10T02:46:58;10.60;;;7.07;;
77513;SDS011;66626;48.872;9.084;2023-06-10T02:49:24;12.00;;;7.45;;
77513;SDS011;66626;48.872;9.084;2023-06-10T02:51:52;9.90;;;6.68;;
77513;SDS011;66626;48.872;9.084;2023-06-10T02:54:19;10.68;;;7.07;;
77513;SDS011;66626;48.872;9.084;2023-06-10T02:56:44;9.93;;;6.80;;
77513;SDS011;66626;48.872;9.084;2023-06-10T02:59:10;10.43;;;7.13;;
77513;SDS011;66626;48.872;9.084;2023-06-10T03:01:45;12.35;;;6.93;;
77513;SDS011;66626;48.872;9.084;2023-06-10T03:04:10;11.10;;;7.25;;
77513;SDS011;66626;48.872;9.084;2023-06-10T03:06:38;11.95;;;6.93;;
77513;SDS011;66626;48.872;9.084;2023-06-10T03:09:05;9.70;;;6.25;;
77513;SDS011;66626;48.872;9.084;2023-06-10T03:11:32;11.50;;;7.43;;
77513;SDS011;66626;48.872;9.084;2023-06-10T03:13:58;9.50;;;6.47;;
77513;SDS011;66626;48.872;9.084;2023-06-10T03:16:23;11.10;;;6.53;;
77513;SDS011;66626;48.872;9.084;2023-06-10T03:18:50;10.18;;;6.57;;
77513;SDS011;66626;48.872;9.084;2023-06-10T03:21:15;13.38;;;7.35;;
77513;SDS011;66626;48.872;9.084;2023-06-10T03:23:41;10.20;;;6.65;;
77513;SDS011;66626;48.872;9.084;2023-06-10T03:26:06;10.32;;;6.75;;
77513;SDS011;66626;48.872;9.084;2023-06-10T03:28:32;11.32;;;6.80;;
77513;SDS011;66626;48.872;9.084;2023-06-10T03:30:57;10.05;;;6.95;;
77513;SDS011;66626;48.872;9.084;2023-06-10T03:33:23;11.85;;;7.82;;
77513;SDS011;66626;48.872;9.084;2023-06-10T03:35:48;10.38;;;7.03;;
77513;SDS011;66626;48.872;9.084;2023-06-10T03:38:13;11.05;;;7.13;;
77513;SDS011;66626;48.872;9.084;2023-06-10T03:40:39;9.02;;;6.28;;
77513;SDS011;66626;48.872;9.084;2023-06-10T03:43:05;11.23;;;7.15;;
77513;SDS011;66626;48.872;9.084;2023-06-10T03:45:30;10.57;;;7.60;;
77513;SDS011;66626;48.872;9.084;2023-06-10T03:47:57;13.13;;;7.60;;
77513;SDS011;66626;48.872;9.084;2023-06-10T03:50:22;13.85;;;8.45;;
77513;SDS011;66626;48.872;9.084;2023-06-10T03:52:49;11.85;;;7.35;;
77513;SDS011;66626;48.872;9.084;2023-06-10T03:55:14;11.50;;;8.30;;
77513;SDS011;66626;48.872;9.084;2023-06-10T03:57:41;11.82;;;7.35;;
77513;SDS011;66626;48.872;9.084;2023-06-10T04:00:07;11.27;;;7.07;;
77513;SDS011;66626;48.872;9.084;2023-06-10T04:02:36;12.00;;;8.20;;
77513;SDS011;66626;48.872;9.084;2023-06-10T04:05:02;9.43;;;6.28;;
77513;SDS011;66626;48.872;9.084;2023-06-10T04:07:27;9.88;;;7.07;;
77513;SDS011;66626;48.872;9.084;2023-06-10T04:09:53;10.30;;;7.00;;
77513;SDS011;66626;48.872;9.084;2023-06-10T04:12:18;10.57;;;7.43;;
77513;SDS011;66626;48.872;9.084;2023-06-10T04:14:44;10.27;;;7.30;;
77513;SDS011;66626;48.872;9.084;2023-06-10T04:17:09;9.93;;;6.25;;
77513;SDS011;66626;48.872;9.084;2023-06-10T04:19:35;9.30;;;6.25;;
77513;SDS011;66626;48.872;9.084;2023-06-10T04:22:00;10.13;;;6.55;;
77513;SDS011;66626;48.872;9.084;2023-06-10T04:24:27;10.68;;;6.82;;
77513;SDS011;66626;48.872;9.084;2023-06-10T04:26:53;11.23;;;8.70;;
77513;SDS011;66626;48.872;9.084;2023-06-10T04:29:18;11.40;;;8.65;;
77513;SDS011;66626;48.872;9.084;2023-06-10T04:31:43;15.07;;;8.80;;
77513;SDS011;66626;48.872;9.084;2023-06-10T04:34:11;13.18;;;8.13;;
77513;SDS011;66626;48.872;9.084;2023-06-10T04:36:36;11.85;;;8.50;;
77513;SDS011;66626;48.872;9.084;2023-06-10T04:39:01;13.50;;;7.97;;
77513;SDS011;66626;48.872;9.084;2023-06-10T04:41:27;14.73;;;9.07;;
77513;SDS011;66626;48.872;9.084;2023-06-10T04:43:52;11.65;;;7.93;;
77513;SDS011;66626;48.872;9.084;2023-06-10T04:46:18;11.18;;;7.65;;
77513;SDS011;66626;48.872;9.084;2023-06-10T04:48:44;11.55;;;6.97;;
77513;SDS011;66626;48.872;9.084;2023-06-10T04:51:11;10.43;;;7.15;;
77513;SDS011;66626;48.872;9.084;2023-06-10T04:53:38;14.05;;;9.52;;
77513;SDS011;66626;48.872;9.084;2023-06-10T04:56:03;12.30;;;8.25;;
77513;SDS011;66626;48.872;9.084;2023-06-10T04:58:28;17.65;;;11.75;;
77513;SDS011;66626;48.872;9.084;2023-06-10T05:00:54;11.93;;;8.18;;
77513;SDS011;66626;48.872;9.084;2023-06-10T05:03:19;11.02;;;7.40;;
77513;SDS011;66626;48.872;9.084;2023-06-10T05:05:45;10.52;;;6.53;;
77513;SDS011;66626;48.872;9.084;2023-06-10T05:08:10;12.85;;;7.78;;
77513;SDS011;66626;48.872;9.084;2023-06-10T05:10:35;13.95;;;6.65;;
77513;SDS011;66626;48.872;9.084;2023-06-10T05:13:01;11.68;;;7.57;;
77513;SDS011;66626;48.872;9.084;2023-06-10T05:15:27;10.68;;;6.90;;
77513;SDS011;66626;48.872;9.084;2023-06-10T05:17:53;13.40;;;6.97;;
77513;SDS011;66626;48.872;9.084;2023-06-10T05:20:18;11.68;;;6.68;;
77513;SDS011;66626;48.872;9.084;2023-06-10T05:22:43;9.68;;;6.75;;
77513;SDS011;66626;48.872;9.084;2023-06-10T05:25:09;12.02;;;7.72;;
77513;SDS011;66626;48.872;9.084;2023-06-10T05:27:35;11.15;;;7.22;;
77513;SDS011;66626;48.872;9.084;2023-06-10T05:30:00;10.60;;;7.72;;
77513;SDS011;66626;48.872;9.084;2023-06-10T05:32:26;10.63;;;6.97;;
77513;SDS011;66626;48.872;9.084;2023-06-10T05:34:51;9.80;;;7.40;;
77513;SDS011;66626;48.872;9.084;2023-06-10T05:37:16;11.82;;;7.75;;
77513;SDS011;66626;48.872;9.084;2023-06-10T05:39:42;12.98;;;7.05;;
77513;SDS011;66626;48.872;9.084;2023-06-10T05:42:07;10.90;;;7.55;;
77513;SDS011;66626;48.872;9.084;2023-06-10T05:44:33;10.68;;;6.93;;
77513;SDS011;66626;48.872;9.084;2023-06-10T05:46:59;9.23;;;6.60;;
77513;SDS011;66626;48.872;9.084;2023-06-10T05:49:24;13.20;;;8.40;;
77513;SDS011;66626;48.872;9.084;2023-06-10T05:51:50;10.75;;;7.70;;
77513;SDS011;66626;48.872;9.084;2023-06-10T05:54:17;12.23;;;7.75;;
77513;SDS011;66626;48.872;9.084;2023-06-10T05:56:42;23.52;;;15.05;;
77513;SDS011;66626;48.872;9.084;2023-06-10T05:59:08;19.15;;;10.32;;
77513;SDS011;66626;48.872;9.084;2023-06-10T06:01:33;11.55;;;7.28;;
77513;SDS011;66626;48.872;9.084;2023-06-10T06:03:58;12.00;;;7.13;;
77513;SDS011;66626;48.872;9.084;2023-06-10T06:06:24;10.20;;;7.03;;
77513;SDS011;66626;48.872;9.084;2023-06-10T06:08:50;10.35;;;6.95;;
77513;SDS011;66626;48.872;9.084;2023-06-10T06:11:15;10.63;;;6.75;;
77513;SDS011;66626;48.872;9.084;2023-06-10T06:13:40;8.38;;;5.95;;
77513;SDS011;66626;48.872;9.084;2023-06-10T06:16:07;11.38;;;6.68;;
77513;SDS011;66626;48.872;9.084;2023-06-10T06:18:32;9.27;;;5.78;;
77513;SDS011;66626;48.872;9.084;2023-06-10T06:20:57;8.45;;;5.40;;
77513;SDS011;66626;48.872;9.084;2023-06-10T06:23:23;17.75;;;9.35;;
77513;SDS011;66626;48.872;9.084;2023-06-10T06:25:48;54.70;;;30.38;;
77513;SDS011;66626;48.872;9.084;2023-06-10T06:28:13;18.92;;;11.15;;
77513;SDS011;66626;48.872;9.084;2023-06-10T06:30:39;10.95;;;7.05;;
77513;SDS011;66626;48.872;9.084;2023-06-10T06:33:04;10.52;;;5.18;;
77513;SDS011;66626;48.872;9.084;2023-06-10T06:35:30;7.68;;;5.25;;
77513;SDS011;66626;48.872;9.084;2023-06-10T06:37:57;8.43;;;4.93;;
77513;SDS011;66626;48.872;9.084;2023-06-10T06:40:23;9.38;;;6.50;;
77513;SDS011;66626;48.872;9.084;2023-06-10T06:42:49;7.40;;;4.43;;
77513;SDS011;66626;48.872;9.084;2023-06-10T06:45:14;8.10;;;4.43;;
77513;SDS011;66626;48.872;9.084;2023-06-10T06:47:40;8.38;;;4.72;;
77513;SDS011;66626;48.872;9.084;2023-06-10T06:50:05;11.15;;;5.55;;
77513;SDS011;66626;48.872;9.084;2023-06-10T06:52:30;8.57;;;4.82;;
77513;SDS011;66626;48.872;9.084;2023-06-10T06:54:56;7.60;;;4.72;;
77513;SDS011;66626;48.872;9.084;2023-06-10T06:57:21;8.38;;;4.90;;
77513;SDS011;66626;48.872;9.084;2023-06-10T06:59:48;6.50;;;4.50;;
77513;SDS011;66626;48.872;9.084;2023-06-10T07:02:13;7.57;;;4.13;;
77513;SDS011;66626;48.872;9.084;2023-06-10T07:04:38;7.00;;;4.20;;
77513;SDS011;66626;48.872;9.084;2023-06-10T07:07:07;5.88;;;3.55;;
77513;SDS011;66626;48.872;9.084;2023-06-10T07:09:33;7.32;;;4.22;;
77513;SDS011;66626;48.872;9.084;2023-06-10T07:11:58;6.78;;;3.78;;
77513;SDS011;66626;48.872;9.084;2023-06-10T07:14:23;7.70;;;3.92;;
77513;SDS011;66626;48.872;9.084;2023-06-10T07:16:49;7.32;;;4.30;;
77513;SDS011;66626;48.872;9.084;2023-06-10T07:19:14;7.72;;;3.78;;
77513;SDS011;66626;48.872;9.084;2023-06-10T07:21:39;7.25;;;4.57;;
77513;SDS011;66626;48.872;9.084;2023-06-10T07:24:05;6.22;;;3.78;;
77513;SDS011;66626;48.872;9.084;2023-06-10T07:26:30;6.88;;;4.03;;
77513;SDS011;66626;48.872;9.084;2023-06-10T07:28:56;6.45;;;3.97;;
77513;SDS011;66626;48.872;9.084;2023-06-10T07:31:21;8.40;;;5.03;;
77513;SDS011;66626;48.872;9.084;2023-06-10T07:33:46;5.57;;;3.83;;
77513;SDS011;66626;48.872;9.084;2023-06-10T07:36:12;7.60;;;4.20;;
77513;SDS011;66626;48.872;9.084;2023-06-10T07:38:37;7.40;;;4.15;;
77513;SDS011;66626;48.872;9.084;2023-06-10T07:41:02;8.55;;;3.85;;
77513;SDS011;66626;48.872;9.084;2023-06-10T07:43:28;7.07;;;4.03;;
77513;SDS011;66626;48.872;9.084;2023-06-10T07:45:53;7.40;;;4.20;;
77513;SDS011;66626;48.872;9.084;2023-06-10T07:48:18;11.43;;;4.57;;
77513;SDS011;66626;48.872;9.084;2023-06-10T07:50:44;6.25;;;3.78;;
77513;SDS011;66626;48.872;9.084;2023-06-10T07:53:09;6.60;;;3.90;;
77513;SDS011;66626;48.872;9.084;2023-06-10T07:55:35;8.45;;;4.32;;
77513;SDS011;66626;48.872;9.084;2023-06-10T07:58:00;7.60;;;4.18;;
77513;SDS011;66626;48.872;9.084;2023-06-10T08:00:25;6.57;;;4.10;;
77513;SDS011;66626;48.872;9.084;2023-06-10T08:02:50;9.25;;;4.57;;
77513;SDS011;66626;48.872;9.084;2023-06-10T08:05:16;16.08;;;5.95;;
77513;SDS011;66626;48.872;9.084;2023-06-10T08:07:42;7.60;;;4.38;;
77513;SDS011;66626;48.872;9.084;2023-06-10T08:10:07;7.80;;;4.10;;
77513;SDS011;66626;48.872;9.084;2023-06-10T08:12:33;6.70;;;4.40;;
77513;SDS011;66626;48.872;9.084;2023-06-10T08:14:59;7.65;;;4.63;;
77513;SDS011;66626;48.872;9.084;2023-06-10T08:17:25;9.07;;;5.28;;
77513;SDS011;66626;48.872;9.084;2023-06-10T08:19:50;7.07;;;4.35;;
77513;SDS011;66626;48.872;9.084;2023-06-10T08:22:16;8.18;;;4.85;;
77513;SDS011;66626;48.872;9.084;2023-06-10T08:24:41;6.97;;;4.80;;
77513;SDS011;66626;48.872;9.084;2023-06-10T08:27:06;7.53;;;5.20;;
77513;SDS011;66626;48.872;9.084;2023-06-10T08:29:32;8.30;;;4.97;;
77513;SDS011;66626;48.872;9.084;2023-06-10T08:31:57;7.03;;;4.47;;
77513;SDS011;66626;48.872;9.084;2023-06-10T08:34:23;7.03;;;4.60;;
77513;SDS011;66626;48.872;9.084;2023-06-10T08:36:48;13.20;;;4.63;;
77513;SDS011;66626;48.872;9.084;2023-06-10T08:39:18;7.00;;;4.18;;
77513;SDS011;66626;48.872;9.084;2023-06-10T08:41:43;7.32;;;4.63;;
77513;SDS011;66626;48.872;9.084;2023-06-10T08:44:17;6.57;;;4.35;;
77513;SDS011;66626;48.872;9.084;2023-06-10T08:46:47;7.32;;;4.78;;
77513;SDS011;66626;48.872;9.084;2023-06-10T08:49:20;8.18;;;4.72;;
77513;SDS011;66626;48.872;9.084;2023-06-10T08:51:51;8.18;;;4.97;;
77513;SDS011;66626;48.872;9.084;2023-06-10T08:54:21;8.05;;;4.82;;
77513;SDS011;66626;48.872;9.084;2023-06-10T08:56:48;6.85;;;4.53;;
77513;SDS011;66626;48.872;9.084;2023-06-10T08:59:14;8.40;;;4.80;;
77513;SDS011;66626;48.872;9.084;2023-06-10T09:01:41;7.03;;;4.30;;
77513;SDS011;66626;48.872;9.084;2023-06-10T09:04:07;6.45;;;4.57;;
77513;SDS011;66626;48.872;9.084;2023-06-10T09:06:33;9.60;;;5.47;;
77513;SDS011;66626;48.872;9.084;2023-06-10T09:08:59;8.40;;;4.72;;
77513;SDS011;66626;48.872;9.084;2023-06-10T09:11:26;8.90;;;5.22;;
77513;SDS011;66626;48.872;9.084;2023-06-10T09:13:51;10.43;;;5.32;;
77513;SDS011;66626;48.872;9.084;2023-06-10T09:16:17;8.63;;;4.88;;
77513;SDS011;66626;48.872;9.084;2023-06-10T09:18:42;7.88;;;4.78;;
77513;SDS011;66626;48.872;9.084;2023-06-10T09:21:08;6.68;;;4.22;;
77513;SDS011;66626;48.872;9.084;2023-06-10T09:23:33;11.32;;;5.90;;
77513;SDS011;66626;48.872;9.084;2023-06-10T09:25:59;8.02;;;4.80;;
77513;SDS011;66626;48.872;9.084;2023-06-10T09:28:25;7.80;;;5.03;;
77513;SDS011;66626;48.872;9.084;2023-06-10T09:30:52;7.18;;;4.07;;
77513;SDS011;66626;48.872;9.084;2023-06-10T09:33:27;7.75;;;5.22;;
77513;SDS011;66626;48.872;9.084;2023-06-10T09:35:52;9.60;;;4.97;;
77513;SDS011;66626;48.872;9.084;2023-06-10T09:38:19;7.10;;;4.70;;
77513;SDS011;66626;48.872;9.084;2023-06-10T09:40:49;8.52;;;4.07;;
77513;SDS011;66626;48.872;9.084;2023-06-10T09:43:18;10.57;;;4.70;;
77513;SDS011;66626;48.872;9.084;2023-06-10T09:45:43;8.70;;;4.53;;
77513;SDS011;66626;48.872;9.084;2023-06-10T09:48:09;8.15;;;5.18;;
77513;SDS011;66626;48.872;9.084;2023-06-10T09:50:41;8.95;;;5.97;;
77513;SDS011;66626;48.872;9.084;2023-06-10T09:53:07;8.50;;;5.70;;
77513;SDS011;66626;48.872;9.084;2023-06-10T09:55:33;7.32;;;4.45;;
77513;SDS011;66626;48.872;9.084;2023-06-10T09:57:59;6.95;;;4.65;;
77513;SDS011;66626;48.872;9.084;2023-06-10T10:00:24;10.85;;;5.03;;
77513;SDS011;66626;48.872;9.084;2023-06-10T10:02:51;6.70;;;3.95;;
77513;SDS011;66626;48.872;9.084;2023-06-10T10:05:18;7.63;;;5.18;;
77513;SDS011;66626;48.872;9.084;2023-06-10T10:07:45;6.00;;;3.92;;
77513;SDS011;66626;48.872;9.084;2023-06-10T10:10:11;9.63;;;5.70;;
77513;SDS011;66626;48.872;9.084;2023-06-10T10:12:38;7.40;;;4.10;;
77513;SDS011;66626;48.872;9.084;2023-06-10T10:15:07;7.43;;;4.22;;
77513;SDS011;66626;48.872;9.084;2023-06-10T10:17:34;7.13;;;4.35;;
77513;SDS011;66626;48.872;9.084;2023-06-10T10:20:20;7.97;;;4.30;;
77513;SDS011;66626;48.872;9.084;2023-06-10T10:22:49;7.90;;;3.88;;
77513;SDS011;66626;48.872;9.084;2023-06-10T10:25:23;5.70;;;4.10;;
77513;SDS011;66626;48.872;9.084;2023-06-10T10:27:54;7.82;;;4.15;;
77513;SDS011;66626;48.872;9.084;2023-06-10T10:30:33;6.38;;;4.15;;
77513;SDS011;66626;48.872;9.084;2023-06-10T10:33:04;6.22;;;4.40;;
77513;SDS011;66626;48.872;9.084;2023-06-10T10:35:30;6.60;;;4.45;;
77513;SDS011;66626;48.872;9.084;2023-06-10T10:37:58;7.43;;;3.63;;
77513;SDS011;66626;48.872;9.084;2023-06-10T10:40:23;7.47;;;3.67;;
77513;SDS011;66626;48.872;9.084;2023-06-10T10:42:50;5.00;;;3.40;;
77513;SDS011;66626;48.872;9.084;2023-06-10T10:45:16;8.18;;;4.20;;
77513;SDS011;66626;48.872;9.084;2023-06-10T10:47:41;6.60;;;4.45;;
77513;SDS011;66626;48.872;9.084;2023-06-10T10:50:15;5.38;;;3.83;;
77513;SDS011;66626;48.872;9.084;2023-06-10T10:52:51;6.88;;;3.95;;
77513;SDS011;66626;48.872;9.084;2023-06-10T10:55:21;6.82;;;3.78;;
77513;SDS011;66626;48.872;9.084;2023-06-10T11:00:48;7.07;;;4.00;;
77513;SDS011;66626;48.872;9.084;2023-06-10T11:03:14;7.63;;;5.55;;
77513;SDS011;66626;48.872;9.084;2023-06-10T11:05:44;11.73;;;8.32;;
77513;SDS011;66626;48.872;9.084;2023-06-10T11:08:13;8.20;;;4.38;;
77513;SDS011;66626;48.872;9.084;2023-06-10T11:10:39;6.30;;;3.78;;
77513;SDS011;66626;48.872;9.084;2023-06-10T11:13:10;6.18;;;3.75;;
77513;SDS011;66626;48.872;9.084;2023-06-10T11:15:46;5.60;;;3.75;;
77513;SDS011;66626;48.872;9.084;2023-06-10T11:18:30;6.35;;;4.00;;
77513;SDS011;66626;48.872;9.084;2023-06-10T11:21:03;6.13;;;3.88;;
77513;SDS011;66626;48.872;9.084;2023-06-10T11:28:39;5.40;;;3.40;;
77513;SDS011;66626;48.872;9.084;2023-06-10T11:31:05;6.25;;;3.70;;
77513;SDS011;66626;48.872;9.084;2023-06-10T11:33:30;5.03;;;3.35;;
77513;SDS011;66626;48.872;9.084;2023-06-10T11:35:56;7.43;;;4.05;;
77513;SDS011;66626;48.872;9.084;2023-06-10T11:38:21;6.18;;;4.07;;
77513;SDS011;66626;48.872;9.084;2023-06-10T11:40:50;5.40;;;3.40;;
77513;SDS011;66626;48.872;9.084;2023-06-10T11:43:18;6.05;;;4.18;;
77513;SDS011;66626;48.872;9.084;2023-06-10T11:45:43;6.15;;;3.90;;
77513;SDS011;66626;48.872;9.084;2023-06-10T11:48:09;6.50;;;4.30;;
77513;SDS011;66626;48.872;9.084;2023-06-10T11:50:34;5.95;;;3.80;;
77513;SDS011;66626;48.872;9.084;2023-06-10T11:53:00;6.32;;;4.35;;
77513;SDS011;66626;48.872;9.084;2023-06-10T11:55:47;7.03;;;3.97;;
77513;SDS011;66626;48.872;9.084;2023-06-10T11:58:19;9.50;;;4.28;;
77513;SDS011;66626;48.872;9.084;2023-06-10T12:00:49;5.30;;;3.40;;
77513;SDS011;66626;48.872;9.084;2023-06-10T12:03:16;6.18;;;3.45;;
77513;SDS011;66626;48.872;9.084;2023-06-10T12:05:58;6.07;;;4.28;;
77513;SDS011;66626;48.872;9.084;2023-06-10T12:08:25;6.45;;;4.35;;
77513;SDS011;66626;48.872;9.084;2023-06-10T12:10:50;6.88;;;3.45;;
77513;SDS011;66626;48.872;9.084;2023-06-10T12:13:16;5.72;;;3.70;;
77513;SDS011;66626;48.872;9.084;2023-06-10T12:15:44;9.18;;;6.30;;
77513;SDS011;66626;48.872;9.084;2023-06-10T12:18:20;8.88;;;5.43;;
77513;SDS011;66626;48.872;9.084;2023-06-10T12:20:46;5.63;;;3.47;;
77513;SDS011;66626;48.872;9.084;2023-06-10T12:23:12;7.28;;;3.20;;
77513;SDS011;66626;48.872;9.084;2023-06-10T12:25:38;5.80;;;3.75;;
77513;SDS011;66626;48.872;9.084;2023-06-10T12:28:04;5.55;;;3.60;;
77513;SDS011;66626;48.872;9.084;2023-06-10T12:30:30;5.53;;;3.53;;
77513;SDS011;66626;48.872;9.084;2023-06-10T12:32:57;5.82;;;3.88;;
77513;SDS011;66626;48.872;9.084;2023-06-10T12:35:23;6.57;;;3.50;;
77513;SDS011;66626;48.872;9.084;2023-06-10T12:40:26;6.05;;;3.38;;
77513;SDS011;66626;48.872;9.084;2023-06-10T12:42:53;6.63;;;3.72;;
77513;SDS011;66626;48.872;9.084;2023-06-10T12:45:26;6.40;;;3.60;;
77513;SDS011;66626;48.872;9.084;2023-06-10T12:47:53;5.13;;;3.35;;
77513;SDS011;66626;48.872;9.084;2023-06-10T12:50:29;4.90;;;3.08;;
77513;SDS011;66626;48.872;9.084;2023-06-10T12:52:55;5.00;;;3.35;;
77513;SDS011;66626;48.872;9.084;2023-06-10T12:55:20;4.90;;;3.30;;
77513;SDS011;66626;48.872;9.084;2023-06-10T12:57:49;5.38;;;3.10;;
77513;SDS011;66626;48.872;9.084;2023-06-10T13:00:15;5.60;;;2.97;;
77513;SDS011;66626;48.872;9.084;2023-06-10T13:02:41;6.13;;;3.60;;
77513;SDS011;66626;48.872;9.084;2023-06-10T13:05:06;5.57;;;3.13;;
77513;SDS011;66626;48.872;9.084;2023-06-10T13:07:32;5.78;;;3.97;;
77513;SDS011;66626;48.872;9.084;2023-06-10T13:09:57;6.13;;;3.85;;
77513;SDS011;66626;48.872;9.084;2023-06-10T13:12:24;6.32;;;4.13;;
77513;SDS011;66626;48.872;9.084;2023-06-10T13:14:50;6.07;;;4.05;;
77513;SDS011;66626;48.872;9.084;2023-06-10T13:17:16;4.90;;;3.10;;
77513;SDS011;66626;48.872;9.084;2023-06-10T13:19:41;4.90;;;3.40;;
77513;SDS011;66626;48.872;9.084;2023-06-10T13:22:07;5.38;;;3.10;;
77513;SDS011;66626;48.872;9.084;2023-06-10T13:24:32;4.60;;;2.60;;
77513;SDS011;66626;48.872;9.084;2023-06-10T13:26:57;6.43;;;3.13;;
77513;SDS011;66626;48.872;9.084;2023-06-10T13:29:23;5.00;;;3.40;;
77513;SDS011;66626;48.872;9.084;2023-06-10T13:31:48;7.10;;;3.00;;
77513;SDS011;66626;48.872;9.084;2023-06-10T13:34:13;5.03;;;3.10;;
77513;SDS011;66626;48.872;9.084;2023-06-10T13:36:39;6.90;;;3.45;;
77513;SDS011;66626;48.872;9.084;2023-06-10T13:39:04;5.43;;;3.30;;
77513;SDS011;66626;48.872;9.084;2023-06-10T13:41:29;5.78;;;3.03;;
77513;SDS011;66626;48.872;9.084;2023-06-10T13:43:55;5.38;;;3.25;;
77513;SDS011;66626;48.872;9.084;2023-06-10T13:46:20;5.63;;;3.00;;
77513;SDS011;66626;48.872;9.084;2023-06-10T13:48:46;5.38;;;3.33;;
77513;SDS011;66626;48.872;9.084;2023-06-10T13:51:12;5.28;;;3.13;;
77513;SDS011;66626;48.872;9.084;2023-06-10T13:53:37;4.80;;;3.13;;
77513;SDS011;66626;48.872;9.084;2023-06-10T13:56:03;5.40;;;3.28;;
77513;SDS011;66626;48.872;9.084;2023-06-10T13:58:28;6.85;;;3.28;;
77513;SDS011;66626;48.872;9.084;2023-06-10T14:00:53;5.90;;;3.28;;
77513;SDS011;66626;48.872;9.084;2023-06-10T14:03:19;4.70;;;2.78;;
77513;SDS011;66626;48.872;9.084;2023-06-10T14:05:44;6.20;;;3.58;;
77513;SDS011;66626;48.872;9.084;2023-06-10T14:08:10;4.80;;;2.90;;
77513;SDS011;66626;48.872;9.084;2023-06-10T14:10:35;7.10;;;3.30;;
77513;SDS011;66626;48.872;9.084;2023-06-10T14:13:00;5.70;;;3.58;;
77513;SDS011;66626;48.872;9.084;2023-06-10T14:15:25;4.70;;;3.20;;
77513;SDS011;66626;48.872;9.084;2023-06-10T14:17:51;5.57;;;3.20;;
77513;SDS011;66626;48.872;9.084;2023-06-10T14:20:16;5.22;;;2.95;;
77513;SDS011;66626;48.872;9.084;2023-06-10T14:22:41;5.80;;;3.33;;
77513;SDS011;66626;48.872;9.084;2023-06-10T14:25:07;5.90;;;3.25;;
77513;SDS011;66626;48.872;9.084;2023-06-10T14:27:32;6.07;;;3.10;;
77513;SDS011;66626;48.872;9.084;2023-06-10T14:29:57;6.68;;;3.15;;
77513;SDS011;66626;48.872;9.084;2023-06-10T14:32:23;6.53;;;3.47;;
77513;SDS011;66626;48.872;9.084;2023-06-10T14:34:48;7.47;;;3.60;;
77513;SDS011;66626;48.872;9.084;2023-06-10T14:37:13;5.05;;;3.72;;
77513;SDS011;66626;48.872;9.084;2023-06-10T14:39:39;5.03;;;3.35;;
77513;SDS011;66626;48.872;9.084;2023-06-10T14:42:04;5.28;;;3.42;;
77513;SDS011;66626;48.872;9.084;2023-06-10T14:44:30;5.65;;;3.50;;
77513;SDS011;66626;48.872;9.084;2023-06-10T14:46:56;9.60;;;4.25;;
77513;SDS011;66626;48.872;9.084;2023-06-10T14:49:21;6.70;;;3.50;;
77513;SDS011;66626;48.872;9.084;2023-06-10T14:51:47;5.47;;;3.22;;
77513;SDS011;66626;48.872;9.084;2023-06-10T14:54:14;5.35;;;3.40;;
77513;SDS011;66626;48.872;9.084;2023-06-10T14:56:40;5.47;;;3.65;;